sensor_id;sensor_type;location;lat;lon;timestamp;temperature;humidity
54558;DHT22;40452;50.080;20.040;2022-09-09T00:01:23;21.60;67.20
54558;DHT22;40452;50.080;20.040;2022-09-09T00:04:06;21.50;66.70
54558;DHT22;40452;50.080;20.040;2022-09-09T00:06:55;21.60;66.70
54558;DHT22;40452;50.080;20.040;2022-09-09T00:09:28;21.60;66.70
54558;DHT22;40452;50.080;20.040;2022-09-09T00:12:02;21.50;66.90
54558;DHT22;40452;50.080;20.040;2022-09-09T04:03:29;21.00;68.90
54558;DHT22;40452;50.080;20.040;2022-09-09T04:05:56;21.40;68.30
54558;DHT22;40452;50.080;20.040;2022-09-09T04:08:22;21.40;67.40
54558;DHT22;40452;50.080;20.040;2022-09-09T04:10:50;21.40;67.30
54558;DHT22;40452;50.080;20.040;2022-09-09T04:13:17;21.40;67.90
54558;DHT22;40452;50.080;20.040;2022-09-09T04:15:57;21.40;68.00
54558;DHT22;40452;50.080;20.040;2022-09-09T04:18:24;21.40;67.70
54558;DHT22;40452;50.080;20.040;2022-09-09T04:20:51;21.40;67.90
54558;DHT22;40452;50.080;20.040;2022-09-09T04:23:18;21.40;67.90
54558;DHT22;40452;50.080;20.040;2022-09-09T04:25:46;21.40;68.20
54558;DHT22;40452;50.080;20.040;2022-09-09T04:28:13;21.40;68.70
54558;DHT22;40452;50.080;20.040;2022-09-09T04:30:39;21.40;68.00
54558;DHT22;40452;50.080;20.040;2022-09-09T04:33:06;21.40;68.30
54558;DHT22;40452;50.080;20.040;2022-09-09T04:35:32;21.40;67.70
54558;DHT22;40452;50.080;20.040;2022-09-09T04:37:58;21.40;67.70
54558;DHT22;40452;50.080;20.040;2022-09-09T04:40:23;21.40;67.40
54558;DHT22;40452;50.080;20.040;2022-09-09T04:42:50;21.40;67.30
54558;DHT22;40452;50.080;20.040;2022-09-09T04:45:15;21.40;67.40
54558;DHT22;40452;50.080;20.040;2022-09-09T04:47:41;21.40;67.50
54558;DHT22;40452;50.080;20.040;2022-09-09T04:50:08;21.40;67.60
54558;DHT22;40452;50.080;20.040;2022-09-09T04:52:35;21.40;67.40
54558;DHT22;40452;50.080;20.040;2022-09-09T04:55:01;21.40;66.80
54558;DHT22;40452;50.080;20.040;2022-09-09T04:57:27;21.40;67.60
54558;DHT22;40452;50.080;20.040;2022-09-09T04:59:54;21.40;67.10
54558;DHT22;40452;50.080;20.040;2022-09-09T05:02:19;21.40;67.10
54558;DHT22;40452;50.080;20.040;2022-09-09T05:04:45;21.40;67.50
54558;DHT22;40452;50.080;20.040;2022-09-09T05:07:10;21.40;67.30
54558;DHT22;40452;50.080;20.040;2022-09-09T05:09:36;21.40;67.20
54558;DHT22;40452;50.080;20.040;2022-09-09T05:12:01;21.40;67.00
54558;DHT22;40452;50.080;20.040;2022-09-09T05:14:28;21.40;67.20
54558;DHT22;40452;50.080;20.040;2022-09-09T05:16:54;21.40;67.40
54558;DHT22;40452;50.080;20.040;2022-09-09T05:19:21;21.50;67.10
54558;DHT22;40452;50.080;20.040;2022-09-09T05:21:46;21.50;67.20
54558;DHT22;40452;50.080;20.040;2022-09-09T05:24:12;21.50;67.30
54558;DHT22;40452;50.080;20.040;2022-09-09T05:26:38;21.50;67.00
54558;DHT22;40452;50.080;20.040;2022-09-09T05:29:03;21.50;67.20
54558;DHT22;40452;50.080;20.040;2022-09-09T05:31:30;21.50;67.30
54558;DHT22;40452;50.080;20.040;2022-09-09T05:33:55;21.50;67.20
54558;DHT22;40452;50.080;20.040;2022-09-09T05:36:22;21.50;67.20
54558;DHT22;40452;50.080;20.040;2022-09-09T05:38:48;21.50;67.00
54558;DHT22;40452;50.080;20.040;2022-09-09T05:41:16;21.50;67.10
54558;DHT22;40452;50.080;20.040;2022-09-09T05:43:43;21.50;67.10
54558;DHT22;40452;50.080;20.040;2022-09-09T05:46:14;21.50;67.10
54558;DHT22;40452;50.080;20.040;2022-09-09T05:48:42;21.50;67.10
54558;DHT22;40452;50.080;20.040;2022-09-09T05:51:12;21.50;67.80
54558;DHT22;40452;50.080;20.040;2022-09-09T05:53:41;21.50;66.90
54558;DHT22;40452;50.080;20.040;2022-09-09T05:56:09;21.50;67.00
54558;DHT22;40452;50.080;20.040;2022-09-09T05:58:39;21.50;66.90
54558;DHT22;40452;50.080;20.040;2022-09-09T06:01:13;21.50;67.20
54558;DHT22;40452;50.080;20.040;2022-09-09T06:03:41;21.50;67.20
54558;DHT22;40452;50.080;20.040;2022-09-09T06:06:09;21.50;67.50
54558;DHT22;40452;50.080;20.040;2022-09-09T06:08:36;21.50;67.40
54558;DHT22;40452;50.080;20.040;2022-09-09T06:11:05;21.50;67.30
54558;DHT22;40452;50.080;20.040;2022-09-09T06:13:31;21.50;67.20
54558;DHT22;40452;50.080;20.040;2022-09-09T06:15:57;21.50;67.60
54558;DHT22;40452;50.080;20.040;2022-09-09T06:18:24;21.50;67.10
54558;DHT22;40452;50.080;20.040;2022-09-09T06:21:00;21.50;67.00
54558;DHT22;40452;50.080;20.040;2022-09-09T06:23:27;21.50;67.00
54558;DHT22;40452;50.080;20.040;2022-09-09T06:26:07;21.50;67.20
54558;DHT22;40452;50.080;20.040;2022-09-09T06:28:34;21.50;67.10
54558;DHT22;40452;50.080;20.040;2022-09-09T06:31:00;21.50;66.80
54558;DHT22;40452;50.080;20.040;2022-09-09T06:33:30;21.50;67.00
54558;DHT22;40452;50.080;20.040;2022-09-09T06:35:56;21.50;66.80
54558;DHT22;40452;50.080;20.040;2022-09-09T06:38:22;21.50;66.50
54558;DHT22;40452;50.080;20.040;2022-09-09T06:40:57;21.50;66.60
54558;DHT22;40452;50.080;20.040;2022-09-09T06:43:24;21.60;66.50
54558;DHT22;40452;50.080;20.040;2022-09-09T06:46:04;21.60;66.20
54558;DHT22;40452;50.080;20.040;2022-09-09T06:48:29;21.60;66.40
54558;DHT22;40452;50.080;20.040;2022-09-09T06:51:06;21.60;66.20
54558;DHT22;40452;50.080;20.040;2022-09-09T06:53:33;21.60;66.30
54558;DHT22;40452;50.080;20.040;2022-09-09T06:58:34;21.60;66.10
54558;DHT22;40452;50.080;20.040;2022-09-09T07:01:05;21.60;66.30
54558;DHT22;40452;50.080;20.040;2022-09-09T07:03:31;21.60;66.70
54558;DHT22;40452;50.080;20.040;2022-09-09T07:05:57;21.60;66.10
54558;DHT22;40452;50.080;20.040;2022-09-09T07:08:23;21.60;65.90
54558;DHT22;40452;50.080;20.040;2022-09-09T07:10:50;21.60;65.80
54558;DHT22;40452;50.080;20.040;2022-09-09T07:13:16;21.60;66.50
54558;DHT22;40452;50.080;20.040;2022-09-09T07:15:42;21.60;65.90
54558;DHT22;40452;50.080;20.040;2022-09-09T07:18:08;21.60;65.80
54558;DHT22;40452;50.080;20.040;2022-09-09T07:20:35;21.60;65.80
54558;DHT22;40452;50.080;20.040;2022-09-09T07:23:00;21.60;65.60
54558;DHT22;40452;50.080;20.040;2022-09-09T07:25:26;21.60;65.40
54558;DHT22;40452;50.080;20.040;2022-09-09T07:27:55;21.60;65.40
54558;DHT22;40452;50.080;20.040;2022-09-09T07:30:21;21.60;65.60
54558;DHT22;40452;50.080;20.040;2022-09-09T07:32:47;21.70;65.50
54558;DHT22;40452;50.080;20.040;2022-09-09T07:35:12;21.70;65.40
54558;DHT22;40452;50.080;20.040;2022-09-09T07:37:38;21.70;65.30
54558;DHT22;40452;50.080;20.040;2022-09-09T07:40:04;21.70;65.20
54558;DHT22;40452;50.080;20.040;2022-09-09T07:42:30;21.70;65.40
54558;DHT22;40452;50.080;20.040;2022-09-09T07:44:56;21.70;65.30
54558;DHT22;40452;50.080;20.040;2022-09-09T07:47:21;21.70;65.40
54558;DHT22;40452;50.080;20.040;2022-09-09T07:49:47;21.70;65.40
54558;DHT22;40452;50.080;20.040;2022-09-09T07:52:15;21.70;65.60
54558;DHT22;40452;50.080;20.040;2022-09-09T07:54:40;21.70;65.50
54558;DHT22;40452;50.080;20.040;2022-09-09T07:57:07;21.70;65.70
54558;DHT22;40452;50.080;20.040;2022-09-09T07:59:32;21.70;65.50
54558;DHT22;40452;50.080;20.040;2022-09-09T08:01:59;21.70;65.30
54558;DHT22;40452;50.080;20.040;2022-09-09T08:04:25;21.70;65.70
54558;DHT22;40452;50.080;20.040;2022-09-09T08:06:53;21.70;65.70
54558;DHT22;40452;50.080;20.040;2022-09-09T08:09:20;21.70;65.10
54558;DHT22;40452;50.080;20.040;2022-09-09T08:11:46;21.70;65.10
54558;DHT22;40452;50.080;20.040;2022-09-09T08:14:12;21.70;65.20
54558;DHT22;40452;50.080;20.040;2022-09-09T08:16:41;21.70;65.20
54558;DHT22;40452;50.080;20.040;2022-09-09T08:19:07;21.70;65.10
54558;DHT22;40452;50.080;20.040;2022-09-09T08:21:35;21.70;64.90
54558;DHT22;40452;50.080;20.040;2022-09-09T08:24:02;21.70;64.80
54558;DHT22;40452;50.080;20.040;2022-09-09T08:26:30;21.70;64.90
54558;DHT22;40452;50.080;20.040;2022-09-09T08:28:57;21.70;64.80
54558;DHT22;40452;50.080;20.040;2022-09-09T08:31:29;21.70;64.90
54558;DHT22;40452;50.080;20.040;2022-09-09T08:33:56;21.70;64.70
54558;DHT22;40452;50.080;20.040;2022-09-09T08:36:23;21.70;64.50
54558;DHT22;40452;50.080;20.040;2022-09-09T08:38:52;21.70;64.50
54558;DHT22;40452;50.080;20.040;2022-09-09T08:50:02;21.70;64.30
54558;DHT22;40452;50.080;20.040;2022-09-09T08:52:41;21.70;64.10
54558;DHT22;40452;50.080;20.040;2022-09-09T09:03:15;21.70;63.90
54558;DHT22;40452;50.080;20.040;2022-09-09T09:05:52;21.70;64.00
54558;DHT22;40452;50.080;20.040;2022-09-09T09:08:29;21.70;63.90
54558;DHT22;40452;50.080;20.040;2022-09-09T09:10:57;21.70;63.90
54558;DHT22;40452;50.080;20.040;2022-09-09T09:13:35;21.70;63.70
54558;DHT22;40452;50.080;20.040;2022-09-09T09:16:13;21.70;63.70
54558;DHT22;40452;50.080;20.040;2022-09-09T09:18:39;21.70;63.60
54558;DHT22;40452;50.080;20.040;2022-09-09T09:23:42;21.70;63.70
54558;DHT22;40452;50.080;20.040;2022-09-09T09:26:09;21.70;63.70
54558;DHT22;40452;50.080;20.040;2022-09-09T09:28:36;21.70;63.70
54558;DHT22;40452;50.080;20.040;2022-09-09T09:31:07;21.70;63.60
54558;DHT22;40452;50.080;20.040;2022-09-09T09:33:48;21.70;63.40
54558;DHT22;40452;50.080;20.040;2022-09-09T09:36:15;21.70;63.30
54558;DHT22;40452;50.080;20.040;2022-09-09T09:38:53;21.70;63.20
54558;DHT22;40452;50.080;20.040;2022-09-09T09:41:38;21.70;63.00
54558;DHT22;40452;50.080;20.040;2022-09-09T09:44:06;21.70;63.20
54558;DHT22;40452;50.080;20.040;2022-09-09T09:46:45;21.70;62.90
54558;DHT22;40452;50.080;20.040;2022-09-09T09:49:10;21.70;62.80
54558;DHT22;40452;50.080;20.040;2022-09-09T09:51:36;21.70;62.90
54558;DHT22;40452;50.080;20.040;2022-09-09T09:54:37;21.70;62.70
54558;DHT22;40452;50.080;20.040;2022-09-09T09:57:09;21.70;62.60
54558;DHT22;40452;50.080;20.040;2022-09-09T09:59:36;21.70;62.40
54558;DHT22;40452;50.080;20.040;2022-09-09T10:02:21;21.70;62.70
54558;DHT22;40452;50.080;20.040;2022-09-09T10:07:27;21.70;62.50
54558;DHT22;40452;50.080;20.040;2022-09-09T10:09:56;21.70;62.70
54558;DHT22;40452;50.080;20.040;2022-09-09T10:32:02;21.70;62.10
54558;DHT22;40452;50.080;20.040;2022-09-09T10:35:10;21.70;62.30
54558;DHT22;40452;50.080;20.040;2022-09-09T10:37:49;21.70;62.30
54558;DHT22;40452;50.080;20.040;2022-09-09T10:40:34;21.70;62.30
54558;DHT22;40452;50.080;20.040;2022-09-09T10:43:21;21.70;62.00
54558;DHT22;40452;50.080;20.040;2022-09-09T10:46:15;21.70;61.90
54558;DHT22;40452;50.080;20.040;2022-09-09T10:51:18;21.70;62.00
54558;DHT22;40452;50.080;20.040;2022-09-09T10:56:54;21.70;61.80
54558;DHT22;40452;50.080;20.040;2022-09-09T10:59:27;21.70;61.90
54558;DHT22;40452;50.080;20.040;2022-09-09T11:02:02;21.70;62.10
54558;DHT22;40452;50.080;20.040;2022-09-09T11:04:33;21.70;61.90
54558;DHT22;40452;50.080;20.040;2022-09-09T11:07:05;21.70;62.00
54558;DHT22;40452;50.080;20.040;2022-09-09T11:09:38;21.70;62.00
54558;DHT22;40452;50.080;20.040;2022-09-09T11:12:05;21.70;61.90
54558;DHT22;40452;50.080;20.040;2022-09-09T11:14:41;21.70;61.90
54558;DHT22;40452;50.080;20.040;2022-09-09T11:17:12;21.70;61.80
54558;DHT22;40452;50.080;20.040;2022-09-09T11:19:41;21.70;61.70
54558;DHT22;40452;50.080;20.040;2022-09-09T11:25:18;21.70;61.60
54558;DHT22;40452;50.080;20.040;2022-09-09T11:28:11;21.70;61.50
54558;DHT22;40452;50.080;20.040;2022-09-09T11:36:46;21.70;61.40
54558;DHT22;40452;50.080;20.040;2022-09-09T11:42:15;21.70;61.50
54558;DHT22;40452;50.080;20.040;2022-09-09T11:44:41;21.70;61.40
54558;DHT22;40452;50.080;20.040;2022-09-09T11:47:22;21.70;61.40
54558;DHT22;40452;50.080;20.040;2022-09-09T11:49:51;21.70;61.40
54558;DHT22;40452;50.080;20.040;2022-09-09T11:55:10;21.70;61.40
54558;DHT22;40452;50.080;20.040;2022-09-09T11:57:39;21.70;61.30
54558;DHT22;40452;50.080;20.040;2022-09-09T12:00:05;21.70;61.30
54558;DHT22;40452;50.080;20.040;2022-09-09T12:02:31;21.80;61.40
54558;DHT22;40452;50.080;20.040;2022-09-09T12:05:09;21.80;61.40
54558;DHT22;40452;50.080;20.040;2022-09-09T12:07:57;21.80;61.50
54558;DHT22;40452;50.080;20.040;2022-09-09T12:10:29;21.80;61.50
54558;DHT22;40452;50.080;20.040;2022-09-09T12:12:55;21.80;61.50
54558;DHT22;40452;50.080;20.040;2022-09-09T12:15:22;21.80;61.40
54558;DHT22;40452;50.080;20.040;2022-09-09T12:17:50;21.70;61.40
54558;DHT22;40452;50.080;20.040;2022-09-09T12:20:50;21.80;61.40
54558;DHT22;40452;50.080;20.040;2022-09-09T12:26:22;21.80;61.40
54558;DHT22;40452;50.080;20.040;2022-09-09T12:28:55;21.80;61.40
54558;DHT22;40452;50.080;20.040;2022-09-09T12:31:54;21.80;61.40
54558;DHT22;40452;50.080;20.040;2022-09-09T12:39:55;21.80;61.30
54558;DHT22;40452;50.080;20.040;2022-09-09T12:42:22;21.80;61.20
54558;DHT22;40452;50.080;20.040;2022-09-09T12:44:55;21.80;61.20
54558;DHT22;40452;50.080;20.040;2022-09-09T12:47:25;21.80;61.20
54558;DHT22;40452;50.080;20.040;2022-09-09T12:49:51;21.80;61.20
54558;DHT22;40452;50.080;20.040;2022-09-09T12:52:32;21.80;61.20
54558;DHT22;40452;50.080;20.040;2022-09-09T12:55:02;21.80;61.10
54558;DHT22;40452;50.080;20.040;2022-09-09T12:57:36;21.80;61.10
54558;DHT22;40452;50.080;20.040;2022-09-09T13:00:17;21.80;61.20
54558;DHT22;40452;50.080;20.040;2022-09-09T13:02:53;21.80;61.10
54558;DHT22;40452;50.080;20.040;2022-09-09T13:05:23;21.80;61.10
54558;DHT22;40452;50.080;20.040;2022-09-09T13:07:48;21.80;61.10
54558;DHT22;40452;50.080;20.040;2022-09-09T13:10:24;21.80;61.10
54558;DHT22;40452;50.080;20.040;2022-09-09T13:12:52;21.70;61.20
54558;DHT22;40452;50.080;20.040;2022-09-09T13:15:22;21.80;61.20
54558;DHT22;40452;50.080;20.040;2022-09-09T13:17:52;21.80;61.20
54558;DHT22;40452;50.080;20.040;2022-09-09T13:20:19;21.80;61.20
54558;DHT22;40452;50.080;20.040;2022-09-09T13:22:48;21.80;61.10
54558;DHT22;40452;50.080;20.040;2022-09-09T13:27:57;21.80;61.10
54558;DHT22;40452;50.080;20.040;2022-09-09T13:30:24;21.80;61.10
54558;DHT22;40452;50.080;20.040;2022-09-09T13:33:05;21.80;61.30
54558;DHT22;40452;50.080;20.040;2022-09-09T13:35:32;21.80;61.00
54558;DHT22;40452;50.080;20.040;2022-09-09T13:37:59;21.80;61.10
54558;DHT22;40452;50.080;20.040;2022-09-09T13:40:31;21.80;61.20
54558;DHT22;40452;50.080;20.040;2022-09-09T13:42:57;21.80;61.10
54558;DHT22;40452;50.080;20.040;2022-09-09T13:45:25;21.80;61.10
54558;DHT22;40452;50.080;20.040;2022-09-09T13:47:55;21.80;61.10
54558;DHT22;40452;50.080;20.040;2022-09-09T13:50:27;21.80;61.20
54558;DHT22;40452;50.080;20.040;2022-09-09T13:52:55;21.80;61.10
54558;DHT22;40452;50.080;20.040;2022-09-09T13:55:25;21.80;61.00
54558;DHT22;40452;50.080;20.040;2022-09-09T13:57:55;21.80;61.00
54558;DHT22;40452;50.080;20.040;2022-09-09T14:00:22;21.80;61.00
54558;DHT22;40452;50.080;20.040;2022-09-09T14:02:49;21.80;61.00
54558;DHT22;40452;50.080;20.040;2022-09-09T14:05:16;21.80;61.00
54558;DHT22;40452;50.080;20.040;2022-09-09T14:07:43;21.70;61.10
54558;DHT22;40452;50.080;20.040;2022-09-09T14:10:09;21.80;61.00
54558;DHT22;40452;50.080;20.040;2022-09-09T14:12:35;21.80;61.00
54558;DHT22;40452;50.080;20.040;2022-09-09T14:15:02;21.80;61.00
54558;DHT22;40452;50.080;20.040;2022-09-09T14:17:28;21.80;61.00
54558;DHT22;40452;50.080;20.040;2022-09-09T14:19:55;21.80;61.00
54558;DHT22;40452;50.080;20.040;2022-09-09T14:22:22;21.80;61.00
54558;DHT22;40452;50.080;20.040;2022-09-09T14:24:48;21.80;61.00
54558;DHT22;40452;50.080;20.040;2022-09-09T14:27:14;21.80;60.90
54558;DHT22;40452;50.080;20.040;2022-09-09T14:29:39;21.80;60.80
54558;DHT22;40452;50.080;20.040;2022-09-09T14:32:05;21.80;60.80
54558;DHT22;40452;50.080;20.040;2022-09-09T14:34:31;21.80;60.80
54558;DHT22;40452;50.080;20.040;2022-09-09T14:36:59;21.80;60.70
54558;DHT22;40452;50.080;20.040;2022-09-09T14:39:24;21.80;61.20
54558;DHT22;40452;50.080;20.040;2022-09-09T14:41:50;21.80;61.10
54558;DHT22;40452;50.080;20.040;2022-09-09T14:44:15;21.80;62.00
54558;DHT22;40452;50.080;20.040;2022-09-09T14:46:44;21.80;61.20
54558;DHT22;40452;50.080;20.040;2022-09-09T14:49:10;21.80;61.20
54558;DHT22;40452;50.080;20.040;2022-09-09T14:51:36;21.80;61.00
54558;DHT22;40452;50.080;20.040;2022-09-09T14:54:02;21.80;61.40
54558;DHT22;40452;50.080;20.040;2022-09-09T14:56:30;21.80;61.40
54558;DHT22;40452;50.080;20.040;2022-09-09T14:58:57;21.80;61.30
54558;DHT22;40452;50.080;20.040;2022-09-09T15:01:24;21.80;61.10
54558;DHT22;40452;50.080;20.040;2022-09-09T15:04:00;21.80;61.30
54558;DHT22;40452;50.080;20.040;2022-09-09T15:06:28;21.80;61.30
54558;DHT22;40452;50.080;20.040;2022-09-09T15:08:54;21.80;61.40
54558;DHT22;40452;50.080;20.040;2022-09-09T15:11:23;21.90;61.40
54558;DHT22;40452;50.080;20.040;2022-09-09T15:13:51;21.80;61.30
54558;DHT22;40452;50.080;20.040;2022-09-09T15:16:19;21.90;61.20
54558;DHT22;40452;50.080;20.040;2022-09-09T15:18:46;21.90;61.20
54558;DHT22;40452;50.080;20.040;2022-09-09T15:21:16;21.90;61.30
54558;DHT22;40452;50.080;20.040;2022-09-09T15:23:44;21.90;61.30
54558;DHT22;40452;50.080;20.040;2022-09-09T15:26:10;21.90;61.40
54558;DHT22;40452;50.080;20.040;2022-09-09T15:28:37;21.90;61.40
54558;DHT22;40452;50.080;20.040;2022-09-09T15:31:09;21.90;61.40
54558;DHT22;40452;50.080;20.040;2022-09-09T15:33:36;21.90;61.30
54558;DHT22;40452;50.080;20.040;2022-09-09T15:36:20;21.90;61.10
54558;DHT22;40452;50.080;20.040;2022-09-09T15:38:46;21.90;61.10
54558;DHT22;40452;50.080;20.040;2022-09-09T15:41:13;21.90;61.20
54558;DHT22;40452;50.080;20.040;2022-09-09T15:43:42;21.90;61.10
54558;DHT22;40452;50.080;20.040;2022-09-09T15:46:35;21.80;61.10
54558;DHT22;40452;50.080;20.040;2022-09-09T15:51:40;21.90;61.20
54558;DHT22;40452;50.080;20.040;2022-09-09T15:54:06;21.90;61.40
54558;DHT22;40452;50.080;20.040;2022-09-09T15:56:32;21.90;61.20
54558;DHT22;40452;50.080;20.040;2022-09-09T15:58:59;21.90;61.80
54558;DHT22;40452;50.080;20.040;2022-09-09T16:01:26;21.90;61.70
54558;DHT22;40452;50.080;20.040;2022-09-09T16:03:52;21.90;62.40
54558;DHT22;40452;50.080;20.040;2022-09-09T16:06:22;21.90;62.60
54558;DHT22;40452;50.080;20.040;2022-09-09T16:08:51;21.90;62.40
54558;DHT22;40452;50.080;20.040;2022-09-09T16:11:21;21.90;62.30
54558;DHT22;40452;50.080;20.040;2022-09-09T16:13:49;21.90;62.20
54558;DHT22;40452;50.080;20.040;2022-09-09T16:16:17;21.90;62.90
54558;DHT22;40452;50.080;20.040;2022-09-09T16:18:47;21.90;62.60
54558;DHT22;40452;50.080;20.040;2022-09-09T16:21:18;21.90;62.80
54558;DHT22;40452;50.080;20.040;2022-09-09T16:23:45;21.90;62.10
54558;DHT22;40452;50.080;20.040;2022-09-09T16:26:12;21.90;62.10
54558;DHT22;40452;50.080;20.040;2022-09-09T16:28:38;21.90;62.60
54558;DHT22;40452;50.080;20.040;2022-09-09T16:31:09;21.90;62.80
54558;DHT22;40452;50.080;20.040;2022-09-09T16:33:35;21.90;62.40
54558;DHT22;40452;50.080;20.040;2022-09-09T16:36:09;21.90;61.90
54558;DHT22;40452;50.080;20.040;2022-09-09T16:38:36;21.90;62.10
54558;DHT22;40452;50.080;20.040;2022-09-09T16:41:04;21.90;62.10
54558;DHT22;40452;50.080;20.040;2022-09-09T16:43:34;21.90;61.90
54558;DHT22;40452;50.080;20.040;2022-09-09T16:46:00;21.90;61.90
54558;DHT22;40452;50.080;20.040;2022-09-09T16:48:34;21.90;61.80
54558;DHT22;40452;50.080;20.040;2022-09-09T16:51:11;21.90;61.80
54558;DHT22;40452;50.080;20.040;2022-09-09T16:53:37;21.90;61.70
54558;DHT22;40452;50.080;20.040;2022-09-09T16:56:07;22.00;61.80
54558;DHT22;40452;50.080;20.040;2022-09-09T16:58:33;21.90;61.50
54558;DHT22;40452;50.080;20.040;2022-09-09T17:01:02;22.00;61.40
54558;DHT22;40452;50.080;20.040;2022-09-09T17:03:28;22.00;61.60
54558;DHT22;40452;50.080;20.040;2022-09-09T17:05:54;22.00;61.60
54558;DHT22;40452;50.080;20.040;2022-09-09T17:08:20;21.90;61.60
54558;DHT22;40452;50.080;20.040;2022-09-09T17:10:45;22.00;61.60
54558;DHT22;40452;50.080;20.040;2022-09-09T17:13:13;22.00;61.60
54558;DHT22;40452;50.080;20.040;2022-09-09T17:15:42;22.00;61.70
54558;DHT22;40452;50.080;20.040;2022-09-09T17:18:08;21.90;61.60
54558;DHT22;40452;50.080;20.040;2022-09-09T17:20:39;22.00;61.60
54558;DHT22;40452;50.080;20.040;2022-09-09T17:23:07;22.00;61.60
54558;DHT22;40452;50.080;20.040;2022-09-09T17:25:33;22.00;61.70
54558;DHT22;40452;50.080;20.040;2022-09-09T17:27:59;22.00;61.70
54558;DHT22;40452;50.080;20.040;2022-09-09T17:30:25;22.00;61.80
54558;DHT22;40452;50.080;20.040;2022-09-09T17:32:51;22.00;61.70
54558;DHT22;40452;50.080;20.040;2022-09-09T17:35:17;22.00;61.80
54558;DHT22;40452;50.080;20.040;2022-09-09T17:37:43;22.00;61.70
54558;DHT22;40452;50.080;20.040;2022-09-09T17:40:09;21.90;61.70
54558;DHT22;40452;50.080;20.040;2022-09-09T17:42:35;22.00;61.80
54558;DHT22;40452;50.080;20.040;2022-09-09T17:45:00;21.90;62.00
54558;DHT22;40452;50.080;20.040;2022-09-09T17:47:26;22.00;61.80
54558;DHT22;40452;50.080;20.040;2022-09-09T17:49:52;21.90;61.60
54558;DHT22;40452;50.080;20.040;2022-09-09T17:52:17;21.90;61.50
54558;DHT22;40452;50.080;20.040;2022-09-09T17:54:43;21.90;61.40
54558;DHT22;40452;50.080;20.040;2022-09-09T17:57:08;21.90;61.60
54558;DHT22;40452;50.080;20.040;2022-09-09T17:59:34;21.90;61.30
54558;DHT22;40452;50.080;20.040;2022-09-09T18:01:59;21.90;61.30
54558;DHT22;40452;50.080;20.040;2022-09-09T18:04:26;21.90;61.30
54558;DHT22;40452;50.080;20.040;2022-09-09T18:06:52;21.90;61.40
54558;DHT22;40452;50.080;20.040;2022-09-09T18:09:23;21.90;61.40
54558;DHT22;40452;50.080;20.040;2022-09-09T18:11:52;21.90;61.30
54558;DHT22;40452;50.080;20.040;2022-09-09T18:14:25;21.90;61.10
54558;DHT22;40452;50.080;20.040;2022-09-09T18:16:51;21.90;61.00
54558;DHT22;40452;50.080;20.040;2022-09-09T18:19:20;21.90;61.20
54558;DHT22;40452;50.080;20.040;2022-09-09T18:21:46;21.90;61.80
54558;DHT22;40452;50.080;20.040;2022-09-09T18:24:14;21.90;62.00
54558;DHT22;40452;50.080;20.040;2022-09-09T18:26:40;21.90;62.10
54558;DHT22;40452;50.080;20.040;2022-09-09T18:29:10;21.90;62.10
54558;DHT22;40452;50.080;20.040;2022-09-09T18:31:37;21.90;62.10
54558;DHT22;40452;50.080;20.040;2022-09-09T18:34:05;21.90;62.10
54558;DHT22;40452;50.080;20.040;2022-09-09T18:36:42;21.90;62.30
54558;DHT22;40452;50.080;20.040;2022-09-09T18:39:09;21.90;62.20
54558;DHT22;40452;50.080;20.040;2022-09-09T18:41:37;21.90;62.00
54558;DHT22;40452;50.080;20.040;2022-09-09T18:44:05;21.90;61.90
54558;DHT22;40452;50.080;20.040;2022-09-09T18:46:33;21.90;61.90
54558;DHT22;40452;50.080;20.040;2022-09-09T18:48:59;21.90;62.30
54558;DHT22;40452;50.080;20.040;2022-09-09T18:51:26;21.90;62.40
54558;DHT22;40452;50.080;20.040;2022-09-09T18:53:58;21.90;62.90
54558;DHT22;40452;50.080;20.040;2022-09-09T18:56:26;21.90;63.00
54558;DHT22;40452;50.080;20.040;2022-09-09T18:58:52;21.80;62.60
54558;DHT22;40452;50.080;20.040;2022-09-09T19:01:19;21.90;62.40
54558;DHT22;40452;50.080;20.040;2022-09-09T19:03:44;21.80;62.30
54558;DHT22;40452;50.080;20.040;2022-09-09T19:06:13;21.80;62.60
54558;DHT22;40452;50.080;20.040;2022-09-09T19:08:40;21.90;62.80
54558;DHT22;40452;50.080;20.040;2022-09-09T19:11:08;21.80;62.90
54558;DHT22;40452;50.080;20.040;2022-09-09T19:13:34;21.80;62.90
54558;DHT22;40452;50.080;20.040;2022-09-09T19:16:09;21.90;63.40
54558;DHT22;40452;50.080;20.040;2022-09-09T19:18:35;21.80;63.40
54558;DHT22;40452;50.080;20.040;2022-09-09T19:21:15;21.80;62.70
54558;DHT22;40452;50.080;20.040;2022-09-09T19:23:43;21.80;62.80
54558;DHT22;40452;50.080;20.040;2022-09-09T19:26:09;21.80;62.90
54558;DHT22;40452;50.080;20.040;2022-09-09T19:28:36;21.80;63.00
54558;DHT22;40452;50.080;20.040;2022-09-09T19:31:07;21.80;62.90
54558;DHT22;40452;50.080;20.040;2022-09-09T19:33:35;21.80;62.90
54558;DHT22;40452;50.080;20.040;2022-09-09T19:36:03;21.80;63.10
54558;DHT22;40452;50.080;20.040;2022-09-09T19:38:30;21.80;63.10
54558;DHT22;40452;50.080;20.040;2022-09-09T19:41:08;21.80;63.10
54558;DHT22;40452;50.080;20.040;2022-09-09T19:43:35;21.80;63.30
54558;DHT22;40452;50.080;20.040;2022-09-09T19:46:03;21.80;63.10
54558;DHT22;40452;50.080;20.040;2022-09-09T19:48:30;21.80;63.10
54558;DHT22;40452;50.080;20.040;2022-09-09T19:51:26;21.80;63.30
54558;DHT22;40452;50.080;20.040;2022-09-09T19:53:56;21.80;63.20
54558;DHT22;40452;50.080;20.040;2022-09-09T19:56:24;21.80;63.30
54558;DHT22;40452;50.080;20.040;2022-09-09T19:58:50;21.80;63.20
54558;DHT22;40452;50.080;20.040;2022-09-09T20:01:21;21.80;63.80
54558;DHT22;40452;50.080;20.040;2022-09-09T20:03:48;21.80;63.90
54558;DHT22;40452;50.080;20.040;2022-09-09T20:06:18;21.80;64.40
54558;DHT22;40452;50.080;20.040;2022-09-09T20:08:45;21.80;64.00
54558;DHT22;40452;50.080;20.040;2022-09-09T20:11:13;21.80;63.70
54558;DHT22;40452;50.080;20.040;2022-09-09T20:13:39;21.80;64.30
54558;DHT22;40452;50.080;20.040;2022-09-09T20:16:20;21.80;64.30
54558;DHT22;40452;50.080;20.040;2022-09-09T20:18:48;21.80;63.80
54558;DHT22;40452;50.080;20.040;2022-09-09T20:21:22;21.80;63.50
54558;DHT22;40452;50.080;20.040;2022-09-09T20:23:49;21.80;63.60
54558;DHT22;40452;50.080;20.040;2022-09-09T20:26:18;21.80;63.50
54558;DHT22;40452;50.080;20.040;2022-09-09T20:28:46;21.80;63.70
54558;DHT22;40452;50.080;20.040;2022-09-09T20:31:14;21.80;63.80
54558;DHT22;40452;50.080;20.040;2022-09-09T20:33:41;21.80;63.70
54558;DHT22;40452;50.080;20.040;2022-09-09T20:36:15;21.80;63.80